createdAt,value
2019-05-07T00:00:48.438Z,25.27
2019-05-07T00:03:17.257Z,23.07
2019-05-07T00:05:46.211Z,24.57
2019-05-07T00:08:14.956Z,32.93
2019-05-07T00:10:43.916Z,22.57
2019-05-07T00:13:12.989Z,25.17
2019-05-07T00:15:42.065Z,26.57
2019-05-07T00:18:12.734Z,23.17
2019-05-07T00:20:42.367Z,27.13
2019-05-07T00:23:12.407Z,26.13
2019-05-07T00:25:42.206Z,26.63
2019-05-07T00:28:12.225Z,26.07
2019-05-07T00:30:42.450Z,27.17
2019-05-07T00:33:13.171Z,27.53
2019-05-07T00:35:42.908Z,28.03
2019-05-07T00:38:12.886Z,25.73
2019-05-07T00:40:42.588Z,22.70
2019-05-07T00:43:12.077Z,28.67
2019-05-07T00:45:42.147Z,26.87
2019-05-07T00:48:12.642Z,27.37
2019-05-07T00:50:42.044Z,26.27
2019-05-07T00:53:13.086Z,24.47
2019-05-07T00:55:42.268Z,24.97
2019-05-07T00:58:13.239Z,25.33
2019-05-07T01:00:42.181Z,24.47
2019-05-07T01:03:12.891Z,27.53
2019-05-07T01:05:43.273Z,30.00
2019-05-07T01:08:13.205Z,27.07
2019-05-07T01:10:43.298Z,26.67
2019-05-07T01:13:12.542Z,26.83
2019-05-07T01:15:43.019Z,26.73
2019-05-07T01:18:12.472Z,23.30
2019-05-07T01:20:42.286Z,27.47
2019-05-07T01:23:13.337Z,25.33
2019-05-07T01:25:43.098Z,24.60
2019-05-07T01:28:13.230Z,31.70
2019-05-07T01:30:43.178Z,27.63
2019-05-07T01:33:12.291Z,25.60
2019-05-07T01:35:42.341Z,23.93
2019-05-07T01:38:12.320Z,27.90
2019-05-07T01:40:42.759Z,25.40
2019-05-07T01:43:12.154Z,29.70
2019-05-07T01:45:46.459Z,30.17
2019-05-07T01:48:11.792Z,27.57
2019-05-07T01:50:42.790Z,27.73
2019-05-07T01:53:12.233Z,28.87
2019-05-07T01:55:42.831Z,30.47
2019-05-07T01:58:12.613Z,27.60
2019-05-07T02:00:42.424Z,26.03
2019-05-07T02:03:12.111Z,27.80
2019-05-07T02:05:42.442Z,24.60
2019-05-07T02:08:12.416Z,36.10
2019-05-07T02:10:42.803Z,34.63
2019-05-07T02:13:12.595Z,31.83
2019-05-07T02:15:42.798Z,32.43
2019-05-07T02:18:12.594Z,31.30
2019-05-07T02:20:42.615Z,31.37
2019-05-07T02:23:12.849Z,33.33
2019-05-07T02:25:42.093Z,35.70
2019-05-07T02:28:12.737Z,30.03
2019-05-07T02:30:44.519Z,34.60
2019-05-07T02:33:13.734Z,28.87
2019-05-07T02:35:43.907Z,32.57
2019-05-07T02:38:13.723Z,32.70
2019-05-07T02:40:43.431Z,34.03
2019-05-07T02:43:14.102Z,30.97
2019-05-07T02:45:44.052Z,33.00
2019-05-07T02:48:13.042Z,38.50
2019-05-07T02:50:43.678Z,37.63
2019-05-07T02:53:13.310Z,29.50
2019-05-07T02:55:43.488Z,32.07
2019-05-07T02:58:13.700Z,34.50
2019-05-07T03:00:43.539Z,36.27
2019-05-07T03:03:13.848Z,34.30
2019-05-07T03:05:43.473Z,30.33
2019-05-07T03:08:13.378Z,31.23
2019-05-07T03:10:43.536Z,33.77
2019-05-07T03:13:13.710Z,28.63
2019-05-07T03:15:43.782Z,32.43
2019-05-07T03:18:13.908Z,35.40
2019-05-07T03:20:43.399Z,29.90
2019-05-07T03:23:13.336Z,30.90
2019-05-07T03:25:43.162Z,35.67
2019-05-07T03:28:13.605Z,30.27
2019-05-07T03:30:45.605Z,35.17
2019-05-07T03:33:16.163Z,31.73
2019-05-07T03:35:46.738Z,30.67
2019-05-07T03:38:13.856Z,29.37
2019-05-07T03:40:44.782Z,37.77
2019-05-07T03:43:14.165Z,35.17
2019-05-07T03:45:43.542Z,34.83
2019-05-07T03:48:13.557Z,36.93
2019-05-07T03:50:43.316Z,39.33
2019-05-07T03:53:14.348Z,33.27
2019-05-07T03:55:44.626Z,38.10
2019-05-07T03:58:14.633Z,36.53
2019-05-07T04:00:44.662Z,32.80
2019-05-07T04:03:18.747Z,33.03
2019-05-07T04:05:44.246Z,33.67
2019-05-07T04:08:13.465Z,35.10
2019-05-07T04:10:44.153Z,32.80
2019-05-07T04:13:13.647Z,31.20
2019-05-07T04:15:43.873Z,30.50
2019-05-07T04:18:13.526Z,30.57
2019-05-07T04:20:43.462Z,31.70
2019-05-07T04:23:13.894Z,30.80
2019-05-07T04:25:43.534Z,33.07
2019-05-07T04:28:14.160Z,31.83
2019-05-07T04:30:43.883Z,31.73
2019-05-07T04:33:13.212Z,29.87
2019-05-07T04:35:43.478Z,30.37
2019-05-07T04:38:13.715Z,28.10
2019-05-07T04:40:43.514Z,26.70
2019-05-07T04:43:13.668Z,30.73
2019-05-07T04:45:43.409Z,27.73
2019-05-07T04:48:14.224Z,33.90
2019-05-07T04:50:47.344Z,28.40
2019-05-07T04:53:13.979Z,27.73
2019-05-07T04:55:43.223Z,31.33
2019-05-07T04:58:14.107Z,27.20
2019-05-07T05:00:43.364Z,26.93
2019-05-07T05:03:12.909Z,24.40
2019-05-07T05:05:43.527Z,26.13
2019-05-07T05:08:13.464Z,28.43
2019-05-07T05:10:43.312Z,26.43
2019-05-07T05:13:13.070Z,23.27
2019-05-07T05:15:43.073Z,24.43
2019-05-07T05:18:12.754Z,19.70
2019-05-07T05:20:42.233Z,26.47
2019-05-07T05:23:12.130Z,20.30
2019-05-07T05:25:43.172Z,24.03
2019-05-07T05:28:12.401Z,23.40
2019-05-07T05:30:42.975Z,20.60
2019-05-07T05:33:12.622Z,21.43
2019-05-07T05:35:43.130Z,20.97
2019-05-07T05:38:12.803Z,23.77
2019-05-07T05:40:42.764Z,24.93
2019-05-07T05:43:12.716Z,25.57
2019-05-07T05:45:42.598Z,25.77
2019-05-07T05:48:13.630Z,25.77
2019-05-07T05:50:42.365Z,26.10
2019-05-07T05:53:12.243Z,29.27
2019-05-07T05:55:42.808Z,25.63
2019-05-07T05:58:12.250Z,26.10
2019-05-07T06:00:42.276Z,32.20
2019-05-07T06:03:11.960Z,29.70
2019-05-07T06:05:42.011Z,26.93
2019-05-07T06:08:12.473Z,25.57
2019-05-07T06:10:42.491Z,27.37
2019-05-07T06:13:12.363Z,24.33
2019-05-07T06:15:42.008Z,26.77
2019-05-07T06:18:20.547Z,28.13
2019-05-07T06:20:42.872Z,24.00
2019-05-07T06:23:12.920Z,28.17
2019-05-07T06:25:42.832Z,26.50
2019-05-07T06:28:12.660Z,27.30
2019-05-07T06:30:41.788Z,27.70
2019-05-07T06:33:12.467Z,28.30
2019-05-07T06:35:42.901Z,34.67
2019-05-07T06:38:12.467Z,26.47
2019-05-07T06:40:42.349Z,25.90
2019-05-07T06:43:12.392Z,27.40
2019-05-07T06:45:42.200Z,30.37
2019-05-07T06:48:12.679Z,28.60
2019-05-07T06:50:43.099Z,36.33
2019-05-07T06:53:12.050Z,35.33
2019-05-07T06:55:42.679Z,34.97
2019-05-07T06:58:12.280Z,37.93
2019-05-07T07:00:42.213Z,42.37
2019-05-07T07:03:12.598Z,45.20
2019-05-07T07:05:42.492Z,41.87
2019-05-07T07:08:12.465Z,35.53
2019-05-07T07:10:42.638Z,37.23
2019-05-07T07:13:11.949Z,34.93
2019-05-07T07:15:42.567Z,34.00
2019-05-07T07:18:12.282Z,32.50
2019-05-07T07:20:42.817Z,27.53
2019-05-07T07:23:11.801Z,29.73
2019-05-07T07:25:40.260Z,34.10
2019-05-07T07:28:08.547Z,30.27
2019-05-07T07:30:36.930Z,29.13
2019-05-07T07:33:05.366Z,31.03
2019-05-07T07:35:33.684Z,29.60
2019-05-07T07:38:04.581Z,27.43
2019-05-07T07:40:32.970Z,30.70
2019-05-07T07:43:04.857Z,25.90
2019-05-07T07:45:32.451Z,28.33
2019-05-07T07:48:02.304Z,25.87
2019-05-07T07:50:32.363Z,26.13
2019-05-07T07:53:02.507Z,27.33
2019-05-07T07:55:37.128Z,25.87
2019-05-07T07:58:05.503Z,29.87
2019-05-07T08:00:33.953Z,21.50
2019-05-07T08:03:02.378Z,31.30
2019-05-07T08:05:32.565Z,26.93
2019-05-07T08:08:02.263Z,24.87
2019-05-07T08:10:32.524Z,23.77
2019-05-07T08:13:01.987Z,32.97
2019-05-07T08:15:32.858Z,24.97
2019-05-07T08:18:02.722Z,25.70
2019-05-07T08:20:32.620Z,26.00
2019-05-07T08:23:02.740Z,27.80
2019-05-07T08:25:32.166Z,23.90
2019-05-07T08:28:02.842Z,20.70
2019-05-07T08:30:32.621Z,22.23
2019-05-07T08:33:02.158Z,17.07
2019-05-07T08:35:32.571Z,23.53
2019-05-07T08:38:02.290Z,22.00
2019-05-07T08:40:32.575Z,21.50
2019-05-07T08:43:03.051Z,24.20
2019-05-07T08:45:32.621Z,23.47
2019-05-07T08:48:02.060Z,20.00
2019-05-07T08:50:32.581Z,17.53
2019-05-07T08:53:02.675Z,13.10
2019-05-07T08:55:32.216Z,14.80
2019-05-07T08:58:02.228Z,18.13
2019-05-07T09:00:32.428Z,23.40
2019-05-07T09:03:01.679Z,22.43
2019-05-07T09:05:32.203Z,22.60
2019-05-07T09:08:02.103Z,19.97
2019-05-07T09:10:32.313Z,22.50
2019-05-07T09:13:00.200Z,21.43
2019-05-07T09:15:28.555Z,19.87
2019-05-07T09:17:56.887Z,24.73
2019-05-07T09:20:25.242Z,21.67
2019-05-07T09:22:53.620Z,19.30
2019-05-07T09:25:22.387Z,21.57
2019-05-07T09:27:52.365Z,22.93
2019-05-07T09:30:22.067Z,22.50
2019-05-07T09:32:52.179Z,18.77
2019-05-07T09:35:21.661Z,18.13
2019-05-07T09:37:50.047Z,18.57
2019-05-07T09:40:18.407Z,22.27
2019-05-07T09:42:46.714Z,22.53
2019-05-07T09:45:15.072Z,24.13
2019-05-07T09:47:43.521Z,25.17
2019-05-07T09:50:12.306Z,22.47
2019-05-07T09:52:42.516Z,25.63
2019-05-07T09:55:16.421Z,20.30
2019-05-07T09:57:42.509Z,25.07
2019-05-07T10:00:12.323Z,23.43
2019-05-07T10:02:42.556Z,23.83
2019-05-07T10:05:11.120Z,23.73
2019-05-07T10:07:39.502Z,23.10
2019-05-07T10:10:08.261Z,19.90
2019-05-07T10:12:36.614Z,22.73
2019-05-07T10:15:05.906Z,22.20
2019-05-07T10:17:34.262Z,22.17
2019-05-07T10:20:17.890Z,20.53
2019-05-07T10:22:33.822Z,20.30
2019-05-07T10:25:02.835Z,25.83
2019-05-07T10:27:32.430Z,19.67
2019-05-07T10:30:02.428Z,20.47
2019-05-07T10:32:32.236Z,21.67
2019-05-07T10:35:02.213Z,19.37
2019-05-07T10:37:31.860Z,26.13
2019-05-07T10:40:02.870Z,20.43
2019-05-07T10:42:32.345Z,21.33
2019-05-07T10:45:02.940Z,18.67
2019-05-07T10:47:39.305Z,22.43
2019-05-07T10:50:07.687Z,18.43
2019-05-07T10:52:36.044Z,20.83
2019-05-07T10:55:04.427Z,24.73
2019-05-07T10:57:32.929Z,22.27
2019-05-07T11:00:03.159Z,21.10
2019-05-07T11:02:32.494Z,23.83
2019-05-07T11:05:02.315Z,20.07
2019-05-07T11:07:32.695Z,22.30
2019-05-07T11:10:01.973Z,21.43
2019-05-07T11:12:31.972Z,19.23
2019-05-07T11:15:02.208Z,19.43
2019-05-07T11:17:32.590Z,19.87
2019-05-07T11:20:00.798Z,19.23
2019-05-07T11:22:29.087Z,19.27
2019-05-07T11:24:57.483Z,19.50
2019-05-07T11:27:25.916Z,19.60
2019-05-07T11:29:54.280Z,20.30
2019-05-07T11:32:22.663Z,17.00
2019-05-07T11:34:52.874Z,16.63
2019-05-07T11:37:22.568Z,17.43
2019-05-07T11:39:52.333Z,18.13
2019-05-07T11:42:21.966Z,16.20
2019-05-07T11:44:52.151Z,18.90
2019-05-07T11:47:22.387Z,18.97
2019-05-07T11:49:52.345Z,16.73
2019-05-07T11:52:22.741Z,16.17
2019-05-07T11:54:52.453Z,18.32
2019-05-07T11:57:22.144Z,21.13
2019-05-07T11:59:51.625Z,18.17
2019-05-07T12:02:22.571Z,15.10
2019-05-07T12:04:52.225Z,15.70
2019-05-07T12:07:22.320Z,16.07
2019-05-07T12:09:52.620Z,15.40
2019-05-07T12:12:22.225Z,13.60
2019-05-07T12:14:51.817Z,14.67
2019-05-07T12:17:22.254Z,15.23
2019-05-07T12:19:52.561Z,15.10
2019-05-07T12:22:20.549Z,14.93
2019-05-07T12:24:48.839Z,17.98
2019-05-07T12:27:17.165Z,14.30
2019-05-07T12:29:45.520Z,16.60
2019-05-07T12:32:13.952Z,14.27
2019-05-07T12:34:42.429Z,13.70
2019-05-07T12:37:12.272Z,15.93
2019-05-07T12:39:42.359Z,14.05
2019-05-07T12:42:12.055Z,13.67
2019-05-07T12:44:42.525Z,13.50
2019-05-07T12:47:12.085Z,17.23
2019-05-07T12:49:42.733Z,16.07
2019-05-07T12:52:12.566Z,14.33
2019-05-07T12:54:42.103Z,17.33
2019-05-07T12:57:11.834Z,16.45
2019-05-07T12:59:42.454Z,15.27
2019-05-07T13:02:21.381Z,15.27
2019-05-07T13:04:41.811Z,13.30
2019-05-07T13:07:11.653Z,15.17
2019-05-07T13:09:40.102Z,11.83
2019-05-07T13:12:08.384Z,13.10
2019-05-07T13:14:36.668Z,14.83
2019-05-07T13:17:05.059Z,13.50
2019-05-07T13:19:33.436Z,16.03
2019-05-07T13:22:02.344Z,15.37
2019-05-07T13:24:32.077Z,14.53
2019-05-07T13:27:00.648Z,16.97
2019-05-07T13:29:29.028Z,14.60
2019-05-07T13:31:58.699Z,16.47
2019-05-07T13:34:27.055Z,14.53
2019-05-07T13:36:56.037Z,17.13
2019-05-07T13:39:24.473Z,16.47
2019-05-07T13:41:53.640Z,14.60
2019-05-07T13:44:22.877Z,15.63
2019-05-07T13:46:52.994Z,15.27
2019-05-07T13:49:21.999Z,14.95
2019-05-07T13:52:02.813Z,15.03
2019-05-07T13:54:21.827Z,12.17
2019-05-07T13:56:52.389Z,12.10
2019-05-07T13:59:22.253Z,17.37
2019-05-07T14:01:50.404Z,12.10
2019-05-07T14:04:18.826Z,12.93
2019-05-07T14:06:47.207Z,14.57
2019-05-07T14:09:15.505Z,13.03
2019-05-07T14:11:43.984Z,14.90
2019-05-07T14:14:12.480Z,12.07
2019-05-07T14:16:42.472Z,14.53
2019-05-07T14:19:12.895Z,13.10
2019-05-07T14:21:42.191Z,11.93
2019-05-07T14:24:12.349Z,20.13
2019-05-07T14:26:42.254Z,13.67
2019-05-07T14:29:10.877Z,13.00
2019-05-07T14:31:39.207Z,15.47
2019-05-07T14:34:07.525Z,13.27
2019-05-07T14:36:35.815Z,12.03
2019-05-07T14:39:05.398Z,13.23
2019-05-07T14:41:34.064Z,11.80
2019-05-07T14:44:02.952Z,13.40
2019-05-07T14:46:44.614Z,9.97
2019-05-07T14:49:02.775Z,12.20
2019-05-07T14:51:32.578Z,11.87
2019-05-07T14:54:01.769Z,11.10
2019-05-07T14:56:32.259Z,11.10
2019-05-07T14:59:02.255Z,10.97
2019-05-07T15:01:30.500Z,10.07
2019-05-07T15:03:58.992Z,8.57
2019-05-07T15:06:27.350Z,9.27
2019-05-07T15:08:55.738Z,9.83
2019-05-07T15:11:24.089Z,10.47
2019-05-07T15:13:52.460Z,9.60
2019-05-07T15:16:22.474Z,8.27
2019-05-07T15:18:52.843Z,9.60
2019-05-07T15:21:21.016Z,11.70
2019-05-07T15:23:49.517Z,11.67
2019-05-07T15:26:17.869Z,9.87
2019-05-07T15:28:46.269Z,11.43
2019-05-07T15:31:14.547Z,9.13
2019-05-07T15:33:42.973Z,9.80
2019-05-07T15:36:11.998Z,8.30
2019-05-07T15:38:40.415Z,9.80
2019-05-07T15:41:08.738Z,8.33
2019-05-07T15:43:37.161Z,11.97
2019-05-07T15:46:05.544Z,12.23
2019-05-07T15:48:34.051Z,9.80
2019-05-07T15:51:02.413Z,11.27
2019-05-07T15:53:32.391Z,11.00
2019-05-07T15:56:01.779Z,11.30
2019-05-07T15:58:30.254Z,14.17
2019-05-07T16:00:58.577Z,12.80
2019-05-07T16:03:28.420Z,13.60
2019-05-07T16:05:56.815Z,10.70
2019-05-07T16:08:25.173Z,14.27
2019-05-07T16:10:53.553Z,13.50
2019-05-07T16:13:22.472Z,15.20
2019-05-07T16:15:52.807Z,13.10
2019-05-07T16:18:23.680Z,15.07
2019-05-07T16:20:52.273Z,16.07
2019-05-07T16:23:22.069Z,14.27
2019-05-07T16:25:52.663Z,12.60
2019-05-07T16:28:21.908Z,11.77
2019-05-07T16:30:52.105Z,14.63
2019-05-07T16:33:20.755Z,14.27
2019-05-07T16:35:49.072Z,12.07
2019-05-07T16:38:18.123Z,16.20
2019-05-07T16:40:46.568Z,13.27
2019-05-07T16:43:14.956Z,15.87
2019-05-07T16:45:43.370Z,18.67
2019-05-07T16:48:12.069Z,15.60
2019-05-07T16:50:40.510Z,12.90
2019-05-07T16:53:08.994Z,11.97
2019-05-07T16:55:37.442Z,13.90
2019-05-07T16:58:05.940Z,11.73
2019-05-07T17:00:34.309Z,11.50
2019-05-07T17:03:02.725Z,13.40
2019-05-07T17:05:32.107Z,13.33
2019-05-07T17:08:02.471Z,12.60
2019-05-07T17:10:31.816Z,12.90
2019-05-07T17:13:00.390Z,14.23
2019-05-07T17:15:28.802Z,11.27
2019-05-07T17:17:57.191Z,11.37
2019-05-07T17:20:26.593Z,11.60
2019-05-07T17:22:55.181Z,11.83
2019-05-07T17:25:23.668Z,11.57
2019-05-07T17:27:52.154Z,11.77
2019-05-07T17:30:20.622Z,11.20
2019-05-07T17:32:49.105Z,9.87
2019-05-07T17:35:17.474Z,11.53
2019-05-07T17:37:46.763Z,12.47
2019-05-07T17:40:15.346Z,10.43
2019-05-07T17:42:43.882Z,11.40
2019-05-07T17:45:13.456Z,13.53
2019-05-07T17:47:42.453Z,11.13
2019-05-07T17:50:12.634Z,14.53
2019-05-07T17:52:41.822Z,10.97
2019-05-07T17:55:12.590Z,11.53
2019-05-07T17:57:41.774Z,10.13
2019-05-07T18:00:12.751Z,14.10
2019-05-07T18:02:42.171Z,12.83
2019-05-07T18:05:11.886Z,12.57
2019-05-07T18:07:42.062Z,11.30
2019-05-07T18:10:12.460Z,12.27
2019-05-07T18:12:42.507Z,12.83
2019-05-07T18:15:12.618Z,14.67
2019-05-07T18:17:42.042Z,13.60
2019-05-07T18:20:12.752Z,13.77
2019-05-07T18:22:40.754Z,13.00
2019-05-07T18:25:09.847Z,14.63
2019-05-07T18:27:38.815Z,13.40
2019-05-07T18:30:09.160Z,12.43
2019-05-07T18:32:37.578Z,16.43
2019-05-07T18:35:06.135Z,14.63
2019-05-07T18:37:34.547Z,13.50
2019-05-07T18:40:03.785Z,13.53
2019-05-07T18:42:32.675Z,18.03
2019-05-07T18:45:02.128Z,19.23
2019-05-07T18:47:32.982Z,18.00
2019-05-07T18:50:02.852Z,15.50
2019-05-07T18:52:31.959Z,15.00
2019-05-07T18:55:02.553Z,12.10
2019-05-07T18:57:32.668Z,14.17
2019-05-07T19:00:03.176Z,12.77
2019-05-07T19:02:31.935Z,12.57
2019-05-07T19:05:02.609Z,12.47
2019-05-07T19:07:32.329Z,14.07
2019-05-07T19:10:02.630Z,15.53
2019-05-07T19:12:32.782Z,15.57
2019-05-07T19:15:02.905Z,12.97
2019-05-07T19:17:32.354Z,14.57
2019-05-07T19:20:03.418Z,15.40
2019-05-07T19:22:33.044Z,12.03
2019-05-07T19:25:02.968Z,13.23
2019-05-07T19:27:32.826Z,12.23
2019-05-07T19:30:01.795Z,17.00
2019-05-07T19:32:32.252Z,15.27
2019-05-07T19:35:01.441Z,12.67
2019-05-07T19:37:31.888Z,15.07
2019-05-07T19:40:02.028Z,15.63
2019-05-07T19:42:31.902Z,15.80
2019-05-07T19:45:02.657Z,17.60
2019-05-07T19:47:32.734Z,16.13
2019-05-07T19:50:02.855Z,17.00
2019-05-07T19:52:33.147Z,16.37
2019-05-07T19:55:04.693Z,16.93
2019-05-07T19:57:33.244Z,14.67
2019-05-07T20:00:03.214Z,14.40
2019-05-07T20:02:32.251Z,17.23
2019-05-07T20:05:03.327Z,19.87
2019-05-07T20:07:32.347Z,18.00
2019-05-07T20:10:02.722Z,15.83
2019-05-07T20:12:33.303Z,15.43
2019-05-07T20:15:02.873Z,13.07
2019-05-07T20:17:34.041Z,14.53
2019-05-07T20:20:05.597Z,14.23
2019-05-07T20:22:34.605Z,15.57
2019-05-07T20:25:15.427Z,13.97
2019-05-07T20:27:34.874Z,16.00
2019-05-07T20:30:08.551Z,19.13
2019-05-07T20:32:40.184Z,16.83
2019-05-07T20:35:14.726Z,15.37
2019-05-07T20:37:42.401Z,16.10
2019-05-07T20:40:12.190Z,17.10
2019-05-07T20:42:42.830Z,11.37
2019-05-07T20:45:12.308Z,17.40
2019-05-07T20:47:42.099Z,14.17
2019-05-07T20:50:12.742Z,15.17
2019-05-07T20:52:41.907Z,15.47
2019-05-07T20:55:12.779Z,12.70
2019-05-07T20:57:42.754Z,12.47
2019-05-07T21:00:12.724Z,14.70
2019-05-07T21:02:47.829Z,14.60
2019-05-07T21:05:11.923Z,15.37
2019-05-07T21:07:42.540Z,12.57
2019-05-07T21:10:12.619Z,13.40
2019-05-07T21:12:42.378Z,15.70
2019-05-07T21:15:12.403Z,15.00
2019-05-07T21:17:42.781Z,12.03
2019-05-07T21:20:12.088Z,16.63
2019-05-07T21:22:42.445Z,15.07
2019-05-07T21:25:12.025Z,15.30
2019-05-07T21:27:43.006Z,15.00
2019-05-07T21:30:10.519Z,14.40
2019-05-07T21:32:38.789Z,14.23
2019-05-07T21:35:07.172Z,15.93
2019-05-07T21:37:35.456Z,15.23
2019-05-07T21:40:06.774Z,16.53
2019-05-07T21:42:35.091Z,12.77
2019-05-07T21:45:04.272Z,16.43
2019-05-07T21:47:32.760Z,15.43
2019-05-07T21:50:02.909Z,12.67
2019-05-07T21:52:32.893Z,14.40
2019-05-07T21:55:02.340Z,12.50
2019-05-07T21:57:32.848Z,14.97
2019-05-07T22:00:02.208Z,12.20
2019-05-07T22:02:32.681Z,12.77
2019-05-07T22:05:02.603Z,15.40
2019-05-07T22:07:30.784Z,14.20
2019-05-07T22:09:59.106Z,15.10
2019-05-07T22:12:27.549Z,17.63
2019-05-07T22:14:55.919Z,12.37
2019-05-07T22:17:24.305Z,14.50
2019-05-07T22:19:52.660Z,14.63
2019-05-07T22:22:23.983Z,12.83
2019-05-07T22:24:52.631Z,14.40
2019-05-07T22:27:22.130Z,16.40
2019-05-07T22:29:52.586Z,16.07
2019-05-07T22:32:22.367Z,13.33
2019-05-07T22:34:52.053Z,14.50
2019-05-07T22:37:22.007Z,12.80
2019-05-07T22:39:50.453Z,12.00
2019-05-07T22:42:18.824Z,12.13
2019-05-07T22:44:47.210Z,15.03
2019-05-07T22:47:15.495Z,13.53
2019-05-07T22:49:44.951Z,13.60
2019-05-07T22:52:13.365Z,11.97
2019-05-07T22:54:42.645Z,13.83
2019-05-07T22:57:13.958Z,14.00
2019-05-07T22:59:43.156Z,11.40
2019-05-07T23:02:12.232Z,12.67
2019-05-07T23:04:43.049Z,12.17
2019-05-07T23:07:12.712Z,13.73
2019-05-07T23:09:41.969Z,10.40
2019-05-07T23:12:12.418Z,13.27
2019-05-07T23:14:40.790Z,11.37
2019-05-07T23:17:09.221Z,10.90
2019-05-07T23:19:37.603Z,13.23
2019-05-07T23:22:05.983Z,10.90
2019-05-07T23:24:34.351Z,9.63
2019-05-07T23:27:02.632Z,12.53
2019-05-07T23:29:33.067Z,11.63
2019-05-07T23:32:01.932Z,8.03
2019-05-07T23:34:32.434Z,8.87
2019-05-07T23:37:02.409Z,9.40
2019-05-07T23:39:30.355Z,8.20
2019-05-07T23:41:58.650Z,8.93
2019-05-07T23:44:26.975Z,7.90
2019-05-07T23:46:55.346Z,9.30
2019-05-07T23:49:23.618Z,11.13
2019-05-07T23:51:52.996Z,9.80
2019-05-07T23:54:22.976Z,9.97
2019-05-07T23:57:04.957Z,10.57
2019-05-07T23:59:22.300Z,11.60
